sensor_id;sensor_type;location;lat;lon;timestamp;pressure;altitude;pressure_sealevel;temperature;humidity
39275;BME280;24980;48.874;2.332;2023-05-19T00:01:14;101926.04;;;24.38;34.12
39275;BME280;24980;48.874;2.332;2023-05-19T00:03:57;101921.72;;;24.38;34.14
39275;BME280;24980;48.874;2.332;2023-05-19T00:06:15;101922.31;;;24.38;34.15
39275;BME280;24980;48.874;2.332;2023-05-19T00:08:45;101921.55;;;24.38;34.16
39275;BME280;24980;48.874;2.332;2023-05-19T00:11:15;101923.84;;;24.39;34.18
39275;BME280;24980;48.874;2.332;2023-05-19T00:13:45;101925.53;;;24.39;34.20
39275;BME280;24980;48.874;2.332;2023-05-19T00:16:19;101925.45;;;24.39;34.20
39275;BME280;24980;48.874;2.332;2023-05-19T00:18:46;101925.45;;;24.39;34.20
39275;BME280;24980;48.874;2.332;2023-05-19T00:21:16;101921.89;;;24.39;34.20
39275;BME280;24980;48.874;2.332;2023-05-19T00:23:46;101928.50;;;24.40;34.22
39275;BME280;24980;48.874;2.332;2023-05-19T00:26:36;101929.34;;;24.39;34.23
39275;BME280;24980;48.874;2.332;2023-05-19T00:28:47;101922.06;;;24.38;34.25
39275;BME280;24980;48.874;2.332;2023-05-19T00:31:17;101922.06;;;24.38;34.26
39275;BME280;24980;48.874;2.332;2023-05-19T00:33:49;101920.19;;;24.38;34.26
39275;BME280;24980;48.874;2.332;2023-05-19T00:36:17;101919.60;;;24.38;34.27
39275;BME280;24980;48.874;2.332;2023-05-19T00:38:47;101918.92;;;24.38;34.29
39275;BME280;24980;48.874;2.332;2023-05-19T00:41:17;101920.88;;;24.38;34.29
39275;BME280;24980;48.874;2.332;2023-05-19T00:43:48;101917.98;;;24.38;34.30
39275;BME280;24980;48.874;2.332;2023-05-19T00:46:18;101923.16;;;24.38;34.31
39275;BME280;24980;48.874;2.332;2023-05-19T00:48:48;101917.48;;;24.38;34.32
39275;BME280;24980;48.874;2.332;2023-05-19T00:51:18;101914.44;;;24.38;34.32
39275;BME280;24980;48.874;2.332;2023-05-19T00:53:49;101914.69;;;24.39;34.33
39275;BME280;24980;48.874;2.332;2023-05-19T00:56:19;101911.38;;;24.39;34.34
39275;BME280;24980;48.874;2.332;2023-05-19T00:58:56;101912.83;;;24.39;34.34
39275;BME280;24980;48.874;2.332;2023-05-19T01:01:20;101909.77;;;24.39;34.35
39275;BME280;24980;48.874;2.332;2023-05-19T01:03:50;101914.69;;;24.39;34.39
39275;BME280;24980;48.874;2.332;2023-05-19T01:06:23;101912.73;;;24.39;34.38
39275;BME280;24980;48.874;2.332;2023-05-19T01:08:52;101908.76;;;24.40;34.39
39275;BME280;24980;48.874;2.332;2023-05-19T01:11:22;101909.95;;;24.40;34.39
39275;BME280;24980;48.874;2.332;2023-05-19T01:13:54;101908.34;;;24.40;34.41
39275;BME280;24980;48.874;2.332;2023-05-19T01:16:42;101909.52;;;24.40;34.41
39275;BME280;24980;48.874;2.332;2023-05-19T01:19:03;101908.90;;;24.40;34.41
39275;BME280;24980;48.874;2.332;2023-05-19T01:21:51;101904.61;;;24.40;34.42
39275;BME280;24980;48.874;2.332;2023-05-19T01:24:05;101903.59;;;24.40;34.43
39275;BME280;24980;48.874;2.332;2023-05-19T01:26:46;101905.67;;;24.40;34.45
39275;BME280;24980;48.874;2.332;2023-05-19T01:31:26;101900.69;;;24.42;34.45
39275;BME280;24980;48.874;2.332;2023-05-19T01:33:58;101900.60;;;24.43;34.46
39275;BME280;24980;48.874;2.332;2023-05-19T01:36:27;101897.52;;;24.44;34.47
39275;BME280;24980;48.874;2.332;2023-05-19T01:38:58;101897.36;;;24.45;34.47
39275;BME280;24980;48.874;2.332;2023-05-19T01:41:29;101895.92;;;24.47;34.48
39275;BME280;24980;48.874;2.332;2023-05-19T01:43:58;101894.02;;;24.48;34.49
39275;BME280;24980;48.874;2.332;2023-05-19T01:46:29;101897.33;;;24.48;34.49
39275;BME280;24980;48.874;2.332;2023-05-19T01:48:59;101895.64;;;24.49;34.50
39275;BME280;24980;48.874;2.332;2023-05-19T01:51:29;101891.12;;;24.51;34.49
39275;BME280;24980;48.874;2.332;2023-05-19T01:54:00;101893.33;;;24.52;34.49
39275;BME280;24980;48.874;2.332;2023-05-19T01:56:59;101891.97;;;24.52;34.50
39275;BME280;24980;48.874;2.332;2023-05-19T01:59:09;101899.52;;;24.52;34.50
39275;BME280;24980;48.874;2.332;2023-05-19T02:01:42;101901.69;;;24.54;34.50
39275;BME280;24980;48.874;2.332;2023-05-19T02:06:59;101898.48;;;24.56;34.50
39275;BME280;24980;48.874;2.332;2023-05-19T02:09:31;101895.39;;;24.57;34.50
39275;BME280;24980;48.874;2.332;2023-05-19T02:14:17;101898.34;;;24.60;34.49
39275;BME280;24980;48.874;2.332;2023-05-19T02:16:35;101895.45;;;24.62;34.48
39275;BME280;24980;48.874;2.332;2023-05-19T02:21:35;101895.42;;;24.63;34.49
39275;BME280;24980;48.874;2.332;2023-05-19T02:24:06;101894.49;;;24.63;34.49
39275;BME280;24980;48.874;2.332;2023-05-19T02:26:36;101891.36;;;24.63;34.50
39275;BME280;24980;48.874;2.332;2023-05-19T02:29:06;101891.87;;;24.63;34.50
39275;BME280;24980;48.874;2.332;2023-05-19T02:31:36;101891.61;;;24.63;34.51
39275;BME280;24980;48.874;2.332;2023-05-19T02:34:07;101891.53;;;24.64;34.53
39275;BME280;24980;48.874;2.332;2023-05-19T02:36:39;101895.43;;;24.65;34.57
39275;BME280;24980;48.874;2.332;2023-05-19T02:39:07;101891.93;;;24.67;34.60
39275;BME280;24980;48.874;2.332;2023-05-19T02:41:38;101891.59;;;24.68;34.65
39275;BME280;24980;48.874;2.332;2023-05-19T02:44:08;101888.20;;;24.69;34.66
39275;BME280;24980;48.874;2.332;2023-05-19T02:46:38;101891.14;;;24.71;34.65
39275;BME280;24980;48.874;2.332;2023-05-19T02:49:10;101886.11;;;24.73;34.65
39275;BME280;24980;48.874;2.332;2023-05-19T02:51:38;101890.09;;;24.73;34.63
39275;BME280;24980;48.874;2.332;2023-05-19T02:54:08;101886.79;;;24.74;34.62
39275;BME280;24980;48.874;2.332;2023-05-19T02:56:38;101883.14;;;24.73;34.59
39275;BME280;24980;48.874;2.332;2023-05-19T02:59:08;101881.36;;;24.74;34.58
39275;BME280;24980;48.874;2.332;2023-05-19T03:01:38;101882.63;;;24.74;34.56
39275;BME280;24980;48.874;2.332;2023-05-19T03:04:08;101881.11;;;24.74;34.54
39275;BME280;24980;48.874;2.332;2023-05-19T03:06:39;101881.36;;;24.74;34.53
39275;BME280;24980;48.874;2.332;2023-05-19T03:09:09;101876.19;;;24.74;34.52
39275;BME280;24980;48.874;2.332;2023-05-19T03:11:39;101878.91;;;24.74;34.52
39275;BME280;24980;48.874;2.332;2023-05-19T03:14:09;101882.20;;;24.75;34.49
39275;BME280;24980;48.874;2.332;2023-05-19T03:16:40;101881.78;;;24.74;34.50
39275;BME280;24980;48.874;2.332;2023-05-19T03:19:10;101882.38;;;24.74;34.49
39275;BME280;24980;48.874;2.332;2023-05-19T03:21:41;101883.66;;;24.74;34.49
39275;BME280;24980;48.874;2.332;2023-05-19T03:24:16;101882.89;;;24.74;34.49
39275;BME280;24980;48.874;2.332;2023-05-19T03:26:41;101881.70;;;24.74;34.49
39275;BME280;24980;48.874;2.332;2023-05-19T03:29:11;101882.55;;;24.75;34.49
39275;BME280;24980;48.874;2.332;2023-05-19T03:31:41;101880.94;;;24.75;34.49
39275;BME280;24980;48.874;2.332;2023-05-19T03:34:11;101885.69;;;24.75;34.48
39275;BME280;24980;48.874;2.332;2023-05-19T03:36:41;101885.18;;;24.75;34.46
39275;BME280;24980;48.874;2.332;2023-05-19T03:39:11;101883.73;;;24.75;34.46
39275;BME280;24980;48.874;2.332;2023-05-19T03:41:41;101882.97;;;24.74;34.46
39275;BME280;24980;48.874;2.332;2023-05-19T03:44:11;101883.99;;;24.74;34.46
39275;BME280;24980;48.874;2.332;2023-05-19T03:46:42;101883.14;;;24.74;34.46
39275;BME280;24980;48.874;2.332;2023-05-19T03:49:12;101885.43;;;24.74;34.45
39275;BME280;24980;48.874;2.332;2023-05-19T03:51:42;101889.67;;;24.74;34.45
39275;BME280;24980;48.874;2.332;2023-05-19T03:54:12;101888.23;;;24.73;34.44
39275;BME280;24980;48.874;2.332;2023-05-19T03:56:42;101886.28;;;24.73;34.45
39275;BME280;24980;48.874;2.332;2023-05-19T03:59:13;101886.78;;;24.73;34.45
39275;BME280;24980;48.874;2.332;2023-05-19T04:01:43;101882.20;;;24.73;34.45
39275;BME280;24980;48.874;2.332;2023-05-19T04:04:13;101882.46;;;24.72;34.44
39275;BME280;24980;48.874;2.332;2023-05-19T04:06:45;101889.16;;;24.73;34.45
39275;BME280;24980;48.874;2.332;2023-05-19T04:09:15;101891.79;;;24.72;34.45
39275;BME280;24980;48.874;2.332;2023-05-19T04:11:44;101891.20;;;24.73;34.44
39275;BME280;24980;48.874;2.332;2023-05-19T04:14:14;101891.70;;;24.73;34.42
39275;BME280;24980;48.874;2.332;2023-05-19T04:16:44;101888.14;;;24.73;34.41
39275;BME280;24980;48.874;2.332;2023-05-19T04:19:14;101888.73;;;24.73;34.41
39275;BME280;24980;48.874;2.332;2023-05-19T04:21:44;101898.06;;;24.73;34.41
39275;BME280;24980;48.874;2.332;2023-05-19T04:24:14;101895.52;;;24.73;34.42
39275;BME280;24980;48.874;2.332;2023-05-19T04:26:52;101895.17;;;24.73;34.41
39275;BME280;24980;48.874;2.332;2023-05-19T04:29:14;101893.40;;;24.73;34.41
39275;BME280;24980;48.874;2.332;2023-05-19T04:31:44;101890.89;;;24.72;34.41
39275;BME280;24980;48.874;2.332;2023-05-19T04:34:16;101891.70;;;24.73;34.40
39275;BME280;24980;48.874;2.332;2023-05-19T04:36:44;101895.18;;;24.73;34.39
39275;BME280;24980;48.874;2.332;2023-05-19T04:39:14;101896.88;;;24.74;34.39
39275;BME280;24980;48.874;2.332;2023-05-19T04:41:44;101895.61;;;24.75;34.40
39275;BME280;24980;48.874;2.332;2023-05-19T04:44:14;101891.42;;;24.76;34.40
39275;BME280;24980;48.874;2.332;2023-05-19T04:46:47;101892.78;;;24.77;34.39
39275;BME280;24980;48.874;2.332;2023-05-19T04:49:15;101893.55;;;24.79;34.42
39275;BME280;24980;48.874;2.332;2023-05-19T04:51:45;101894.62;;;24.80;34.44
39275;BME280;24980;48.874;2.332;2023-05-19T04:54:15;101895.98;;;24.82;34.48
39275;BME280;24980;48.874;2.332;2023-05-19T04:56:52;101900.81;;;24.85;34.49
39275;BME280;24980;48.874;2.332;2023-05-19T04:59:16;101905.70;;;24.86;34.48
39275;BME280;24980;48.874;2.332;2023-05-19T05:01:46;101910.11;;;24.87;34.47
39275;BME280;24980;48.874;2.332;2023-05-19T05:04:16;101908.33;;;24.87;34.46
39275;BME280;24980;48.874;2.332;2023-05-19T05:06:46;101908.84;;;24.88;34.45
39275;BME280;24980;48.874;2.332;2023-05-19T05:09:16;101907.28;;;24.89;34.42
39275;BME280;24980;48.874;2.332;2023-05-19T05:11:47;101910.34;;;24.91;34.39
39275;BME280;24980;48.874;2.332;2023-05-19T05:14:18;101913.91;;;24.92;34.37
39275;BME280;24980;48.874;2.332;2023-05-19T05:16:48;101915.66;;;24.93;34.36
39275;BME280;24980;48.874;2.332;2023-05-19T05:19:18;101918.11;;;24.93;34.35
39275;BME280;24980;48.874;2.332;2023-05-19T05:21:48;101922.86;;;24.93;34.34
39275;BME280;24980;48.874;2.332;2023-05-19T05:24:18;101927.61;;;24.94;34.35
39275;BME280;24980;48.874;2.332;2023-05-19T05:26:49;101925.75;;;24.95;34.34
39275;BME280;24980;48.874;2.332;2023-05-19T05:29:27;101923.55;;;24.95;34.33
39275;BME280;24980;48.874;2.332;2023-05-19T05:31:50;101927.67;;;24.95;34.32
39275;BME280;24980;48.874;2.332;2023-05-19T05:34:20;101926.73;;;24.95;34.32
39275;BME280;24980;48.874;2.332;2023-05-19T05:36:50;101931.17;;;24.95;34.31
39275;BME280;24980;48.874;2.332;2023-05-19T05:39:20;101929.73;;;24.94;34.29
39275;BME280;24980;48.874;2.332;2023-05-19T05:41:50;101928.77;;;24.95;34.29
39275;BME280;24980;48.874;2.332;2023-05-19T05:44:20;101926.48;;;24.95;34.27
39275;BME280;24980;48.874;2.332;2023-05-19T05:46:51;101926.91;;;24.96;34.27
39275;BME280;24980;48.874;2.332;2023-05-19T05:49:21;101925.30;;;24.95;34.27
39275;BME280;24980;48.874;2.332;2023-05-19T05:51:51;101923.94;;;24.95;34.27
39275;BME280;24980;48.874;2.332;2023-05-19T05:54:22;101928.69;;;24.96;34.27
39275;BME280;24980;48.874;2.332;2023-05-19T05:56:52;101931.83;;;24.97;34.27
39275;BME280;24980;48.874;2.332;2023-05-19T05:59:28;101931.06;;;24.97;34.27
39275;BME280;24980;48.874;2.332;2023-05-19T06:01:52;101929.28;;;24.97;34.26
39275;BME280;24980;48.874;2.332;2023-05-19T06:04:22;101929.28;;;24.96;34.25
39275;BME280;24980;48.874;2.332;2023-05-19T06:06:52;101934.20;;;24.97;34.24
39275;BME280;24980;48.874;2.332;2023-05-19T06:09:22;101933.86;;;24.96;34.24
39275;BME280;24980;48.874;2.332;2023-05-19T06:11:53;101937.08;;;24.96;34.24
39275;BME280;24980;48.874;2.332;2023-05-19T06:14:23;101941.32;;;24.95;34.24
39275;BME280;24980;48.874;2.332;2023-05-19T06:16:53;101943.30;;;24.93;34.25
39275;BME280;24980;48.874;2.332;2023-05-19T06:19:23;101937.31;;;24.91;34.26
39275;BME280;24980;48.874;2.332;2023-05-19T06:21:53;101942.23;;;24.91;34.28
39275;BME280;24980;48.874;2.332;2023-05-19T06:24:23;101940.19;;;24.91;34.28
39275;BME280;24980;48.874;2.332;2023-05-19T06:26:53;101942.14;;;24.89;34.30
39275;BME280;24980;48.874;2.332;2023-05-19T06:29:23;101947.40;;;24.89;34.32
39275;BME280;24980;48.874;2.332;2023-05-19T06:31:56;101948.84;;;24.90;34.36
39275;BME280;24980;48.874;2.332;2023-05-19T06:34:23;101942.48;;;24.89;34.40
39275;BME280;24980;48.874;2.332;2023-05-19T06:36:53;101935.12;;;24.87;34.46
39275;BME280;24980;48.874;2.332;2023-05-19T06:39:23;101937.67;;;24.87;34.50
39275;BME280;24980;48.874;2.332;2023-05-19T06:41:53;101937.48;;;24.91;34.53
39275;BME280;24980;48.874;2.332;2023-05-19T06:44:24;101932.98;;;24.91;34.59
39275;BME280;24980;48.874;2.332;2023-05-19T06:46:54;101932.98;;;24.89;34.65
39275;BME280;24980;48.874;2.332;2023-05-19T06:49:24;101929.70;;;24.86;34.72
39275;BME280;24980;48.874;2.332;2023-05-19T06:51:54;101931.68;;;24.85;34.76
39275;BME280;24980;48.874;2.332;2023-05-19T06:54:24;101932.44;;;24.82;34.80
39275;BME280;24980;48.874;2.332;2023-05-19T06:56:54;101927.43;;;24.79;34.85
39275;BME280;24980;48.874;2.332;2023-05-19T06:59:25;101928.22;;;24.78;34.88
39275;BME280;24980;48.874;2.332;2023-05-19T07:01:55;101919.83;;;24.76;34.93
39275;BME280;24980;48.874;2.332;2023-05-19T07:04:25;101920.79;;;24.75;34.99
39275;BME280;24980;48.874;2.332;2023-05-19T07:07:03;101918.84;;;24.75;35.05
39275;BME280;24980;48.874;2.332;2023-05-19T07:09:26;101916.30;;;24.74;35.06
39275;BME280;24980;48.874;2.332;2023-05-19T07:11:56;101918.58;;;24.73;35.06
39275;BME280;24980;48.874;2.332;2023-05-19T07:14:26;101917.84;;;24.72;35.08
39275;BME280;24980;48.874;2.332;2023-05-19T07:16:56;101918.09;;;24.70;35.08
39275;BME280;24980;48.874;2.332;2023-05-19T07:19:26;101926.91;;;24.69;35.09
39275;BME280;24980;48.874;2.332;2023-05-19T07:21:56;101922.95;;;24.67;35.09
39275;BME280;24980;48.874;2.332;2023-05-19T07:24:26;101922.78;;;24.66;35.09
39275;BME280;24980;48.874;2.332;2023-05-19T07:26:56;101919.84;;;24.65;35.09
39275;BME280;24980;48.874;2.332;2023-05-19T07:29:26;101917.72;;;24.64;35.08
39275;BME280;24980;48.874;2.332;2023-05-19T07:31:56;101916.73;;;24.62;35.08
39275;BME280;24980;48.874;2.332;2023-05-19T07:34:29;101919.36;;;24.60;35.08
39275;BME280;24980;48.874;2.332;2023-05-19T07:36:57;101917.44;;;24.58;35.09
39275;BME280;24980;48.874;2.332;2023-05-19T07:41:57;101913.98;;;24.55;35.11
39275;BME280;24980;48.874;2.332;2023-05-19T07:44:27;101913.81;;;24.54;35.11
39275;BME280;24980;48.874;2.332;2023-05-19T07:46:58;101912.82;;;24.52;35.12
39275;BME280;24980;48.874;2.332;2023-05-19T07:49:27;101911.62;;;24.51;35.14
39275;BME280;24980;48.874;2.332;2023-05-19T07:51:58;101910.36;;;24.50;35.16
39275;BME280;24980;48.874;2.332;2023-05-19T07:54:28;101911.66;;;24.49;35.16
39275;BME280;24980;48.874;2.332;2023-05-19T07:56:58;101908.27;;;24.48;35.17
39275;BME280;24980;48.874;2.332;2023-05-19T07:59:28;101906.59;;;24.45;35.18
39275;BME280;24980;48.874;2.332;2023-05-19T08:01:58;101908.11;;;24.45;35.19
39275;BME280;24980;48.874;2.332;2023-05-19T08:04:28;101906.33;;;24.44;35.21
39275;BME280;24980;48.874;2.332;2023-05-19T08:06:58;101904.08;;;24.43;35.20
39275;BME280;24980;48.874;2.332;2023-05-19T08:09:28;101903.39;;;24.42;35.23
39275;BME280;24980;48.874;2.332;2023-05-19T08:14:28;101901.44;;;24.41;35.26
39275;BME280;24980;48.874;2.332;2023-05-19T08:16:58;101897.74;;;24.39;35.28
39275;BME280;24980;48.874;2.332;2023-05-19T08:19:28;101899.09;;;24.38;35.29
39275;BME280;24980;48.874;2.332;2023-05-19T08:21:58;101898.24;;;24.38;35.30
39275;BME280;24980;48.874;2.332;2023-05-19T08:24:28;101898.36;;;24.36;35.31
39275;BME280;24980;48.874;2.332;2023-05-19T08:26:58;101892.93;;;24.35;35.33
39275;BME280;24980;48.874;2.332;2023-05-19T08:29:28;101895.50;;;24.33;35.33
39275;BME280;24980;48.874;2.332;2023-05-19T08:31:58;101891.09;;;24.32;35.34
39275;BME280;24980;48.874;2.332;2023-05-19T08:34:28;101893.45;;;24.31;35.35
39275;BME280;24980;48.874;2.332;2023-05-19T08:36:58;101897.89;;;24.29;35.37
39275;BME280;24980;48.874;2.332;2023-05-19T08:39:28;101889.50;;;24.28;35.37
39275;BME280;24980;48.874;2.332;2023-05-19T08:41:59;101890.62;;;24.26;35.38
39275;BME280;24980;48.874;2.332;2023-05-19T08:44:38;101887.82;;;24.25;35.40
39275;BME280;24980;48.874;2.332;2023-05-19T08:47:02;101884.45;;;24.23;35.41
39275;BME280;24980;48.874;2.332;2023-05-19T08:49:32;101880.64;;;24.22;35.43
39275;BME280;24980;48.874;2.332;2023-05-19T08:52:32;101879.28;;;24.21;35.45
39275;BME280;24980;48.874;2.332;2023-05-19T08:54:44;101871.95;;;24.20;35.45
39275;BME280;24980;48.874;2.332;2023-05-19T08:57:01;101870.10;;;24.18;35.46
39275;BME280;24980;48.874;2.332;2023-05-19T08:59:31;101872.81;;;24.16;35.45
39275;BME280;24980;48.874;2.332;2023-05-19T09:02:02;101868.56;;;24.14;35.45
39275;BME280;24980;48.874;2.332;2023-05-19T09:04:31;101863.42;;;24.12;35.46
39275;BME280;24980;48.874;2.332;2023-05-19T09:07:02;101862.06;;;24.11;35.47
39275;BME280;24980;48.874;2.332;2023-05-19T09:09:32;101861.55;;;24.09;35.49
39275;BME280;24980;48.874;2.332;2023-05-19T09:12:03;101861.16;;;24.07;35.53
39275;BME280;24980;48.874;2.332;2023-05-19T09:19:34;101848.89;;;24.04;35.59
39275;BME280;24980;48.874;2.332;2023-05-19T09:22:04;101849.14;;;24.03;35.64
39275;BME280;24980;48.874;2.332;2023-05-19T09:24:34;101849.48;;;24.02;35.69
39275;BME280;24980;48.874;2.332;2023-05-19T09:27:04;101847.38;;;24.01;35.71
39275;BME280;24980;48.874;2.332;2023-05-19T09:29:34;101839.14;;;24.03;35.71
39275;BME280;24980;48.874;2.332;2023-05-19T09:32:04;101836.30;;;24.08;35.64
39275;BME280;24980;48.874;2.332;2023-05-19T09:34:40;101830.80;;;24.09;35.62
39275;BME280;24980;48.874;2.332;2023-05-19T09:37:05;101826.42;;;24.07;35.65
39275;BME280;24980;48.874;2.332;2023-05-19T09:39:35;101827.89;;;24.05;35.70
39275;BME280;24980;48.874;2.332;2023-05-19T09:42:06;101829.23;;;24.02;35.74
39275;BME280;24980;48.874;2.332;2023-05-19T09:44:36;101827.56;;;23.99;35.77
39275;BME280;24980;48.874;2.332;2023-05-19T09:47:08;101827.92;;;23.98;35.80
39275;BME280;24980;48.874;2.332;2023-05-19T09:49:36;101825.80;;;23.96;35.79
39275;BME280;24980;48.874;2.332;2023-05-19T09:52:07;101826.50;;;23.94;35.84
39275;BME280;24980;48.874;2.332;2023-05-19T09:54:39;101823.96;;;23.93;35.86
39275;BME280;24980;48.874;2.332;2023-05-19T09:57:08;101821.53;;;23.91;35.89
39275;BME280;24980;48.874;2.332;2023-05-19T09:59:38;101833.30;;;23.90;35.90
39275;BME280;24980;48.874;2.332;2023-05-19T10:02:14;101832.19;;;23.89;35.93
39275;BME280;24980;48.874;2.332;2023-05-19T10:04:40;101828.83;;;23.88;35.95
39275;BME280;24980;48.874;2.332;2023-05-19T10:07:11;101832.21;;;23.86;35.97
39275;BME280;24980;48.874;2.332;2023-05-19T10:09:40;101828.57;;;23.86;35.99
39275;BME280;24980;48.874;2.332;2023-05-19T10:12:12;101826.23;;;23.85;36.02
39275;BME280;24980;48.874;2.332;2023-05-19T10:14:42;101821.66;;;23.85;36.05
39275;BME280;24980;48.874;2.332;2023-05-19T10:17:14;101825.20;;;23.83;36.07
39275;BME280;24980;48.874;2.332;2023-05-19T10:19:50;101823.62;;;23.82;36.09
39275;BME280;24980;48.874;2.332;2023-05-19T10:22:13;101820.06;;;23.82;36.11
39275;BME280;24980;48.874;2.332;2023-05-19T10:24:43;101811.17;;;23.81;36.14
39275;BME280;24980;48.874;2.332;2023-05-19T10:27:14;101815.66;;;23.80;36.16
39275;BME280;24980;48.874;2.332;2023-05-19T10:29:48;101817.01;;;23.80;36.18
39275;BME280;24980;48.874;2.332;2023-05-19T10:32:17;101812.27;;;23.80;36.20
39275;BME280;24980;48.874;2.332;2023-05-19T10:35:06;101810.41;;;23.80;36.23
39275;BME280;24980;48.874;2.332;2023-05-19T10:39:50;101812.36;;;23.82;36.24
39275;BME280;24980;48.874;2.332;2023-05-19T10:42:28;101811.59;;;23.81;36.26
39275;BME280;24980;48.874;2.332;2023-05-19T10:49:48;101807.59;;;23.85;36.29
39275;BME280;24980;48.874;2.332;2023-05-19T10:52:18;101807.83;;;23.86;36.29
39275;BME280;24980;48.874;2.332;2023-05-19T10:54:48;101802.92;;;23.87;36.31
39275;BME280;24980;48.874;2.332;2023-05-19T10:57:25;101807.83;;;23.87;36.33
39275;BME280;24980;48.874;2.332;2023-05-19T10:59:49;101801.31;;;23.88;36.37
39275;BME280;24980;48.874;2.332;2023-05-19T11:02:39;101796.32;;;23.88;36.41
39275;BME280;24980;48.874;2.332;2023-05-19T11:04:49;101798.41;;;23.90;36.44
39275;BME280;24980;48.874;2.332;2023-05-19T11:07:20;101790.94;;;23.93;36.43
39275;BME280;24980;48.874;2.332;2023-05-19T11:09:50;101793.06;;;23.94;36.44
39275;BME280;24980;48.874;2.332;2023-05-19T11:12:21;101789.25;;;23.94;36.45
39275;BME280;24980;48.874;2.332;2023-05-19T11:14:54;101799.89;;;23.95;36.45
39275;BME280;24980;48.874;2.332;2023-05-19T11:17:35;101794.67;;;23.95;36.46
39275;BME280;24980;48.874;2.332;2023-05-19T11:19:53;101790.09;;;23.94;36.49
39275;BME280;24980;48.874;2.332;2023-05-19T11:22:25;101783.99;;;23.93;36.50
39275;BME280;24980;48.874;2.332;2023-05-19T11:24:53;101781.55;;;23.94;36.50
39275;BME280;24980;48.874;2.332;2023-05-19T11:27:26;101782.73;;;23.94;36.49
39275;BME280;24980;48.874;2.332;2023-05-19T11:29:53;101767.88;;;23.95;36.49
39275;BME280;24980;48.874;2.332;2023-05-19T11:32:26;101774.44;;;23.95;36.49
39275;BME280;24980;48.874;2.332;2023-05-19T11:34:54;101773.73;;;23.96;36.50
39275;BME280;24980;48.874;2.332;2023-05-19T11:37:24;101767.29;;;23.96;36.51
39275;BME280;24980;48.874;2.332;2023-05-19T11:39:54;101769.41;;;23.97;36.51
39275;BME280;24980;48.874;2.332;2023-05-19T11:42:24;101763.00;;;23.95;36.53
39275;BME280;24980;48.874;2.332;2023-05-19T11:44:54;101766.13;;;23.94;36.54
39275;BME280;24980;48.874;2.332;2023-05-19T11:47:33;101757.33;;;23.94;36.54
39275;BME280;24980;48.874;2.332;2023-05-19T11:49:55;101759.44;;;23.94;36.55
39275;BME280;24980;48.874;2.332;2023-05-19T11:52:26;101749.12;;;23.95;36.57
39275;BME280;24980;48.874;2.332;2023-05-19T11:54:59;101745.78;;;23.96;36.57
39275;BME280;24980;48.874;2.332;2023-05-19T11:57:27;101750.02;;;23.97;36.57
39275;BME280;24980;48.874;2.332;2023-05-19T12:00:00;101742.40;;;23.98;36.57
39275;BME280;24980;48.874;2.332;2023-05-19T12:02:27;101747.83;;;23.98;36.57
39275;BME280;24980;48.874;2.332;2023-05-19T12:04:57;101733.39;;;23.99;36.57
39275;BME280;24980;48.874;2.332;2023-05-19T12:07:27;101722.64;;;23.99;36.57
39275;BME280;24980;48.874;2.332;2023-05-19T12:09:58;101736.45;;;24.00;36.57
39275;BME280;24980;48.874;2.332;2023-05-19T12:12:28;101732.97;;;24.00;36.57
39275;BME280;24980;48.874;2.332;2023-05-19T12:15:01;101728.91;;;24.00;36.57
39275;BME280;24980;48.874;2.332;2023-05-19T12:17:32;101720.44;;;24.00;36.57
39275;BME280;24980;48.874;2.332;2023-05-19T12:19:59;101715.27;;;23.99;36.58
39275;BME280;24980;48.874;2.332;2023-05-19T12:22:30;101716.58;;;23.98;36.59
39275;BME280;24980;48.874;2.332;2023-05-19T12:25:00;101721.23;;;23.98;36.60
39275;BME280;24980;48.874;2.332;2023-05-19T12:27:34;101713.69;;;23.97;36.61
39275;BME280;24980;48.874;2.332;2023-05-19T12:30:02;101717.25;;;23.97;36.62
39275;BME280;24980;48.874;2.332;2023-05-19T12:32:32;101716.66;;;23.98;36.62
39275;BME280;24980;48.874;2.332;2023-05-19T12:35:03;101712.39;;;23.99;36.64
39275;BME280;24980;48.874;2.332;2023-05-19T12:37:32;101720.27;;;23.99;36.65
39275;BME280;24980;48.874;2.332;2023-05-19T12:40:03;101720.61;;;24.00;36.64
39275;BME280;24980;48.874;2.332;2023-05-19T12:42:33;101716.55;;;24.00;36.64
39275;BME280;24980;48.874;2.332;2023-05-19T12:45:03;101703.17;;;24.01;36.63
39275;BME280;24980;48.874;2.332;2023-05-19T12:47:51;101708.90;;;24.03;36.62
39275;BME280;24980;48.874;2.332;2023-05-19T12:50:08;101706.36;;;24.04;36.59
39275;BME280;24980;48.874;2.332;2023-05-19T12:52:41;101699.47;;;24.06;36.59
39275;BME280;24980;48.874;2.332;2023-05-19T12:55:05;101698.11;;;24.07;36.56
39275;BME280;24980;48.874;2.332;2023-05-19T12:57:36;101701.67;;;24.08;36.55
39275;BME280;24980;48.874;2.332;2023-05-19T13:00:15;101696.39;;;24.08;36.54
39275;BME280;24980;48.874;2.332;2023-05-19T13:02:59;101693.59;;;24.09;36.53
39275;BME280;24980;48.874;2.332;2023-05-19T13:05:06;101695.80;;;24.10;36.52
39275;BME280;24980;48.874;2.332;2023-05-19T13:07:37;101694.19;;;24.11;36.52
39275;BME280;24980;48.874;2.332;2023-05-19T13:10:07;101684.28;;;24.11;36.51
39275;BME280;24980;48.874;2.332;2023-05-19T13:12:37;101679.71;;;24.12;36.50
39275;BME280;24980;48.874;2.332;2023-05-19T13:15:12;101689.51;;;24.15;36.50
39275;BME280;24980;48.874;2.332;2023-05-19T13:17:37;101685.53;;;24.16;36.49
39275;BME280;24980;48.874;2.332;2023-05-19T13:20:08;101689.34;;;24.17;36.50
39275;BME280;24980;48.874;2.332;2023-05-19T13:22:38;101688.88;;;24.18;36.50
39275;BME280;24980;48.874;2.332;2023-05-19T13:25:08;101682.11;;;24.20;36.50
39275;BME280;24980;48.874;2.332;2023-05-19T13:27:38;101682.20;;;24.20;36.50
39275;BME280;24980;48.874;2.332;2023-05-19T13:30:09;101682.20;;;24.20;36.51
39275;BME280;24980;48.874;2.332;2023-05-19T13:32:39;101688.69;;;24.21;36.51